METAR AND TAF INFORMATION
METAR FOR UKKK
ADDS - METARS form results

(1708 UTC 25 August 2019)
Data provider http://aviationweather.gov/metar/data/
 
METAR text: UKKK 251700Z 08002MPS CAVOK 22/11 Q1025 R08/CLRD70 NOSIG
Conditions at: UKKK (KIEV/ZHYLIANY , UA) observed 1700 UTC 25 August 2019
Temperature: 22.0°C (72°F)
Dewpoint: 11.0°C (52°F) [RH = 50%]
Pressure (altimeter): 30.27 inches Hg (1025.0 mb)
Winds: from the E (80 degrees) at 5 MPH (4 knots; 2.1 m/s)
Visibility: 6 or more miles (10+ km)
Ceiling: ceiling and visibility are OK
Clouds: unknown
Weather: no significant weather observed at this time

METAR text: UKKK 251630Z 06003MPS CAVOK 25/10 Q1025 R08/70D NOSIG
Conditions at: UKKK (KIEV/ZHYLIANY , UA) observed 1630 UTC 25 August 2019
Temperature: 25.0°C (77°F)
Dewpoint: 10.0°C (50°F) [RH = 39%]
Pressure (altimeter): 30.27 inches Hg (1025.0 mb)
Winds: from the ENE (60 degrees) at 7 MPH (6 knots; 3.1 m/s)
Visibility: 6 or more miles (10+ km)
Ceiling: ceiling and visibility are OK
Clouds: unknown
Weather: no significant weather observed at this time

Forecast for: UKKK (KIEV/ZHYLIANY , UA)
Text: TAF UKKK 251101Z 2512/2612 06003G08MPS CAVOK TX27/2512Z TN14/2602Z
Forecast period: 1200 UTC 25 August 2019 to 1200 UTC 26 August 2019
Forecast type: FROM: standard forecast or significant change
Winds: from the ENE (60 degrees) at 7 MPH (6 knots; 3.1 m/s)
gusting to 18 MPH (16 knots; 8.2 m/s)
Visibility: 6 or more miles 10+ km)
Ceiling: unknown
Clouds: missing
Weather: no significant weather forecast for this period
Text: TEMPO 2518/2606 07003MPS
Forecast period: 1800 UTC 25 August 2019 to 0600 UTC 26 August 2019
Forecast type: TEMPORARY: The following changes expected for less than half the time period
Winds: from the ENE (70 degrees) at 7 MPH (6 knots; 3.1 m/s)
Visibility: missing
Ceiling: unknown
Clouds: missing
Weather: no significant weather forecast for this period

 AIRPORT MAP

 RUNWAY INFORMATION
Runway 08 Runway length 5905 ft Runway width 161 ft
Runway elevation 559 ft Runway displaced threshold 0 ft Runway heading 86
Runway 26 Runway length 5905 ft Runway width 161 ft
Runway elevation 586 ft Runway displaced threshold 0 ft Runway heading 266

 AIRPORT FREQUENCIES
Type APP Name ARR Frequency 122.5 MHZ
Type APP Name KYIV RADAR Frequency 123 MHZ
Type GND Name GND Frequency 119 MHZ
Type PMSV Name METEO Frequency 126.8 MHZ
Type TWR Name TWR Frequency 122.5 MHZ

 AIRPORT NEAR NAVIGATION AIDS
Type NDB Name Zhulyany Frequency 360 KHZ
Type NDB Name Zhulyany Frequency 360 KHZ



Powered by Virtual Airlines Manager